createdAt,value
2018-05-29T00:01:12.180Z,19.40
2018-05-29T00:03:39.637Z,19.40
2018-05-29T00:06:07.409Z,19.10
2018-05-29T00:08:35.005Z,19.00
2018-05-29T00:11:02.473Z,19.00
2018-05-29T00:13:30.764Z,19.10
2018-05-29T00:15:58.242Z,19.00
2018-05-29T00:18:25.793Z,18.90
2018-05-29T00:20:53.268Z,18.80
2018-05-29T00:23:20.747Z,18.70
2018-05-29T00:25:48.248Z,18.50
2018-05-29T00:28:15.798Z,18.50
2018-05-29T00:30:44.034Z,18.80
2018-05-29T00:33:11.509Z,18.80
2018-05-29T00:35:39.604Z,19.00
2018-05-29T00:38:07.858Z,19.00
2018-05-29T00:40:35.354Z,19.00
2018-05-29T00:43:02.836Z,19.00
2018-05-29T00:45:30.320Z,18.80
2018-05-29T00:47:57.790Z,18.90
2018-05-29T00:50:25.268Z,18.90
2018-05-29T00:52:53.516Z,19.00
2018-05-29T00:55:32.727Z,19.00
2018-05-29T00:58:00.197Z,19.00
2018-05-29T01:00:27.806Z,19.00
2018-05-29T01:02:56.032Z,19.00
2018-05-29T01:05:23.518Z,19.00
2018-05-29T01:07:51.771Z,19.00
2018-05-29T01:10:19.248Z,18.90
2018-05-29T01:12:46.744Z,18.80
2018-05-29T01:15:14.259Z,18.80
2018-05-29T01:17:41.733Z,18.80
2018-05-29T01:20:09.953Z,18.80
2018-05-29T01:22:37.447Z,18.80
2018-05-29T01:25:04.927Z,18.70
2018-05-29T01:27:33.162Z,18.70
2018-05-29T01:30:00.714Z,18.60
2018-05-29T01:32:28.219Z,18.60
2018-05-29T01:34:56.476Z,18.70
2018-05-29T01:37:23.949Z,18.60
2018-05-29T01:39:52.233Z,18.70
2018-05-29T01:42:20.485Z,18.70
2018-05-29T01:44:48.632Z,18.70
2018-05-29T01:47:16.136Z,18.70
2018-05-29T01:49:44.440Z,18.70
2018-05-29T01:52:11.914Z,18.60
2018-05-29T01:54:39.457Z,18.60
2018-05-29T01:57:06.953Z,18.50
2018-05-29T01:59:34.420Z,18.60
2018-05-29T02:02:01.898Z,18.60
2018-05-29T02:04:30.188Z,18.70
2018-05-29T02:06:57.631Z,18.60
2018-05-29T02:09:25.974Z,18.30
2018-05-29T02:11:53.450Z,18.30
2018-05-29T02:14:21.049Z,18.20
2018-05-29T02:16:48.530Z,17.90
2018-05-29T02:19:15.989Z,17.90
2018-05-29T02:21:43.459Z,18.00
2018-05-29T02:24:10.958Z,18.00
2018-05-29T02:26:39.207Z,18.00
2018-05-29T02:29:06.770Z,18.00
2018-05-29T02:31:34.246Z,17.90
2018-05-29T02:34:01.733Z,17.80
2018-05-29T02:36:29.224Z,17.60
2018-05-29T02:38:56.815Z,17.60
2018-05-29T02:41:24.371Z,17.50
2018-05-29T02:43:51.851Z,17.60
2018-05-29T02:46:20.096Z,17.70
2018-05-29T02:48:47.574Z,17.60
2018-05-29T02:51:15.110Z,17.70
2018-05-29T02:53:42.581Z,17.70
2018-05-29T02:56:10.105Z,17.60
2018-05-29T02:58:37.583Z,17.50
2018-05-29T03:01:05.117Z,17.60
2018-05-29T03:03:32.594Z,17.70
2018-05-29T03:06:00.121Z,17.80
2018-05-29T03:08:27.589Z,17.90
2018-05-29T03:10:55.053Z,17.90
2018-05-29T03:13:22.543Z,17.90
2018-05-29T03:15:50.115Z,17.90
2018-05-29T03:18:18.389Z,17.90
2018-05-29T03:20:45.871Z,17.90
2018-05-29T03:23:13.360Z,18.00
2018-05-29T03:25:40.846Z,18.00
2018-05-29T03:28:08.365Z,18.10
2018-05-29T03:30:36.564Z,18.10
2018-05-29T03:33:04.022Z,18.10
2018-05-29T03:35:31.506Z,18.20
2018-05-29T03:37:58.979Z,18.20
2018-05-29T03:40:27.236Z,18.20
2018-05-29T03:42:54.705Z,18.20
2018-05-29T03:45:22.977Z,18.20
2018-05-29T03:47:50.431Z,18.20
2018-05-29T03:50:17.914Z,18.30
2018-05-29T03:52:45.395Z,18.30
2018-05-29T03:55:12.878Z,18.30
2018-05-29T03:57:40.505Z,18.30
2018-05-29T04:00:07.985Z,18.40
2018-05-29T04:02:35.467Z,18.40
2018-05-29T04:05:02.947Z,18.50
2018-05-29T04:07:31.328Z,18.50
2018-05-29T04:09:59.612Z,18.50
2018-05-29T04:12:27.060Z,18.50
2018-05-29T04:14:55.404Z,18.30
2018-05-29T04:17:22.872Z,18.20
2018-05-29T04:19:50.351Z,18.00
2018-05-29T04:22:17.829Z,18.00
2018-05-29T04:24:45.408Z,17.90
2018-05-29T04:27:12.897Z,18.10
2018-05-29T04:29:40.386Z,18.20
2018-05-29T04:32:08.651Z,18.40
2018-05-29T04:34:36.910Z,18.40
2018-05-29T04:37:04.398Z,18.40
2018-05-29T04:39:32.643Z,18.60
2018-05-29T04:42:00.159Z,18.60
2018-05-29T04:44:27.641Z,18.50
2018-05-29T04:46:55.138Z,18.30
2018-05-29T04:49:22.636Z,18.30
2018-05-29T04:51:50.280Z,18.40
2018-05-29T04:54:18.560Z,18.30
2018-05-29T04:56:46.044Z,18.30
2018-05-29T04:59:13.501Z,18.20
2018-05-29T05:01:40.986Z,18.30
2018-05-29T05:04:08.583Z,18.40
2018-05-29T05:06:36.887Z,18.30
2018-05-29T05:09:04.374Z,18.30
2018-05-29T05:11:32.477Z,18.40
2018-05-29T05:14:00.713Z,18.60
2018-05-29T05:16:28.193Z,18.60
2018-05-29T05:18:55.718Z,18.70
2018-05-29T05:21:23.173Z,18.80
2018-05-29T05:23:50.635Z,18.80
2018-05-29T05:26:18.125Z,18.90
2018-05-29T05:28:45.601Z,19.00
2018-05-29T05:31:13.844Z,19.20
2018-05-29T05:33:41.331Z,19.20
2018-05-29T05:36:09.574Z,19.40
2018-05-29T05:38:37.057Z,19.40
2018-05-29T05:41:04.523Z,19.60
2018-05-29T05:43:32.003Z,19.70
2018-05-29T05:45:59.488Z,19.90
2018-05-29T05:48:26.963Z,20.00
2018-05-29T05:50:54.439Z,20.00
2018-05-29T05:53:21.925Z,20.10
2018-05-29T05:55:50.174Z,20.10
2018-05-29T05:58:17.641Z,20.10
2018-05-29T06:00:45.894Z,20.10
2018-05-29T06:03:13.375Z,20.10
2018-05-29T06:05:40.857Z,20.10
2018-05-29T06:08:08.334Z,20.10
2018-05-29T06:10:35.818Z,20.00
2018-05-29T06:13:03.318Z,20.10
2018-05-29T06:15:31.549Z,20.10
2018-05-29T06:17:59.031Z,20.10
2018-05-29T06:20:26.506Z,20.20
2018-05-29T06:22:54.746Z,20.50
2018-05-29T06:25:22.205Z,20.40
2018-05-29T06:27:49.670Z,20.60
2018-05-29T06:30:17.161Z,20.80
2018-05-29T06:32:45.438Z,21.00
2018-05-29T06:35:13.018Z,21.00
2018-05-29T06:37:40.511Z,21.10
2018-05-29T06:40:08.005Z,21.10
2018-05-29T06:42:36.247Z,21.20
2018-05-29T06:45:03.813Z,21.20
2018-05-29T06:47:31.247Z,21.40
2018-05-29T06:49:58.807Z,21.50
2018-05-29T06:52:26.304Z,21.60
2018-05-29T06:54:53.771Z,21.70
2018-05-29T06:57:22.002Z,21.90
2018-05-29T06:59:49.497Z,21.80
2018-05-29T07:02:16.990Z,22.10
2018-05-29T07:04:44.458Z,22.40
2018-05-29T07:07:11.938Z,22.30
2018-05-29T07:09:39.450Z,22.40
2018-05-29T07:12:07.699Z,22.70
2018-05-29T07:14:35.200Z,22.70
2018-05-29T07:17:02.666Z,22.70
2018-05-29T07:19:30.124Z,23.00
2018-05-29T07:21:57.612Z,23.00
2018-05-29T07:24:25.240Z,23.10
2018-05-29T07:26:52.750Z,23.20
2018-05-29T07:29:20.309Z,23.50
2018-05-29T07:31:47.734Z,23.60
2018-05-29T07:34:15.233Z,23.50
2018-05-29T07:36:43.473Z,23.50
2018-05-29T07:39:11.053Z,23.50
2018-05-29T07:41:38.539Z,23.40
2018-05-29T07:44:06.781Z,23.50
2018-05-29T07:46:34.269Z,23.50
2018-05-29T07:49:02.540Z,23.50
2018-05-29T07:51:30.833Z,23.60
2018-05-29T07:53:58.356Z,23.50
2018-05-29T07:56:25.874Z,23.60
2018-05-29T07:58:53.378Z,23.50
2018-05-29T08:01:20.863Z,23.80
2018-05-29T08:03:49.216Z,24.30
2018-05-29T08:06:16.933Z,24.20
2018-05-29T08:08:44.447Z,24.40
2018-05-29T08:11:12.782Z,24.00
2018-05-29T08:13:40.295Z,24.00
2018-05-29T08:16:09.056Z,24.20
2018-05-29T08:18:36.612Z,24.10
2018-05-29T08:21:04.071Z,24.10
2018-05-29T08:23:31.630Z,24.40
2018-05-29T08:25:59.136Z,24.40
2018-05-29T08:28:26.603Z,24.00
2018-05-29T08:30:54.134Z,24.00
2018-05-29T08:33:22.390Z,24.40
2018-05-29T08:35:49.939Z,24.40
2018-05-29T08:38:17.453Z,24.40
2018-05-29T08:40:44.950Z,24.50
2018-05-29T08:43:12.431Z,24.20
2018-05-29T08:45:40.687Z,23.80
2018-05-29T08:48:08.184Z,23.80
2018-05-29T08:50:35.660Z,23.80
2018-05-29T08:53:03.149Z,23.80
2018-05-29T08:55:31.291Z,24.00
2018-05-29T08:57:58.793Z,24.00
2018-05-29T09:00:26.271Z,24.00
2018-05-29T09:02:54.515Z,24.10
2018-05-29T09:05:21.982Z,24.10
2018-05-29T09:07:49.494Z,24.10
2018-05-29T09:10:16.975Z,24.10
2018-05-29T09:12:44.461Z,24.10
2018-05-29T09:15:11.931Z,24.40
2018-05-29T09:17:40.217Z,25.30
2018-05-29T09:20:07.747Z,25.20
2018-05-29T09:22:35.232Z,25.30
2018-05-29T09:25:03.467Z,25.70
2018-05-29T09:27:30.946Z,25.70
2018-05-29T09:29:58.489Z,25.70
2018-05-29T09:32:25.949Z,25.20
2018-05-29T09:34:53.435Z,25.10
2018-05-29T09:37:21.673Z,25.50
2018-05-29T09:39:49.255Z,25.40
2018-05-29T09:42:16.727Z,25.20
2018-05-29T09:44:45.023Z,25.30
2018-05-29T09:47:13.236Z,24.90
2018-05-29T09:49:40.721Z,24.90
2018-05-29T09:52:08.203Z,24.80
2018-05-29T09:54:36.451Z,25.20
2018-05-29T09:57:03.953Z,25.10
2018-05-29T10:02:06.408Z,25.50
2018-05-29T10:04:33.906Z,25.50
2018-05-29T10:07:01.469Z,25.70
2018-05-29T10:09:28.870Z,25.30
2018-05-29T10:11:56.337Z,25.20
2018-05-29T10:14:24.583Z,25.90
2018-05-29T10:16:52.131Z,25.90
2018-05-29T10:19:19.642Z,26.50
2018-05-29T10:21:47.108Z,26.80
2018-05-29T10:24:15.336Z,26.70
2018-05-29T10:26:42.851Z,26.70
2018-05-29T10:29:11.093Z,27.30
2018-05-29T10:31:39.089Z,27.20
2018-05-29T10:34:07.346Z,27.40
2018-05-29T10:36:35.609Z,26.90
2018-05-29T10:39:03.075Z,26.80
2018-05-29T10:41:30.611Z,26.10
2018-05-29T10:43:58.249Z,26.00
2018-05-29T10:46:25.741Z,26.60
2018-05-29T10:48:53.230Z,26.90
2018-05-29T10:51:21.538Z,27.30
2018-05-29T10:53:48.952Z,27.30
2018-05-29T10:56:17.789Z,26.80
2018-05-29T10:58:45.257Z,26.80
2018-05-29T11:01:12.733Z,26.70
2018-05-29T11:03:40.202Z,26.80
2018-05-29T11:06:07.668Z,26.60
2018-05-29T11:08:35.921Z,26.80
2018-05-29T11:11:03.414Z,26.80
2018-05-29T11:13:31.675Z,26.60
2018-05-29T11:15:59.126Z,26.60
2018-05-29T11:18:26.596Z,27.00
2018-05-29T11:20:54.891Z,26.20
2018-05-29T11:23:23.143Z,26.00
2018-05-29T11:25:51.468Z,26.10
2018-05-29T11:28:19.953Z,26.20
2018-05-29T11:30:47.427Z,26.20
2018-05-29T11:33:14.921Z,26.20
2018-05-29T11:35:42.382Z,26.70
2018-05-29T11:38:10.631Z,26.90
2018-05-29T11:40:38.146Z,26.90
2018-05-29T11:43:05.626Z,26.50
2018-05-29T11:45:33.085Z,26.40
2018-05-29T11:48:00.563Z,26.30
2018-05-29T11:50:28.029Z,26.00
2018-05-29T11:52:55.524Z,25.70
2018-05-29T11:55:23.034Z,25.70
2018-05-29T11:57:50.504Z,25.50
2018-05-29T12:00:17.977Z,25.70
2018-05-29T12:02:46.210Z,26.30
2018-05-29T12:05:13.670Z,26.20
2018-05-29T12:07:41.197Z,26.40
2018-05-29T12:10:09.403Z,25.90
2018-05-29T12:12:36.874Z,25.80
2018-05-29T12:15:04.348Z,26.20
2018-05-29T12:17:31.845Z,26.20
2018-05-29T12:19:59.330Z,25.60
2018-05-29T12:22:26.832Z,25.80
2018-05-29T12:24:54.277Z,25.60
2018-05-29T12:27:21.752Z,25.60
2018-05-29T12:29:49.990Z,26.40
2018-05-29T12:32:17.482Z,26.40
2018-05-29T12:34:45.922Z,25.80
2018-05-29T12:47:18.287Z,27.10
2018-05-29T12:49:46.537Z,26.70
2018-05-29T12:52:14.043Z,26.70
2018-05-29T12:54:42.303Z,26.80
2018-05-29T12:57:10.561Z,27.10
2018-05-29T12:59:38.522Z,27.00
2018-05-29T13:02:06.032Z,27.20
2018-05-29T13:04:33.763Z,27.20
2018-05-29T13:07:01.241Z,26.80
2018-05-29T13:09:29.505Z,27.30
2018-05-29T13:11:57.763Z,27.60
2018-05-29T13:14:25.249Z,27.60
2018-05-29T13:16:53.534Z,27.10
2018-05-29T13:19:21.774Z,26.70
2018-05-29T13:21:49.263Z,26.60
2018-05-29T13:24:17.496Z,26.30
2018-05-29T13:26:44.999Z,26.40
2018-05-29T13:29:12.497Z,26.20
2018-05-29T13:31:39.975Z,26.00
2018-05-29T13:34:07.456Z,25.60
2018-05-29T13:36:34.940Z,25.20
2018-05-29T13:39:02.418Z,25.50
2018-05-29T13:41:29.907Z,25.80
2018-05-29T13:43:57.379Z,25.80
2018-05-29T13:46:24.856Z,25.40
2018-05-29T13:48:53.135Z,25.20
2018-05-29T13:51:21.399Z,25.10
2018-05-29T13:53:49.633Z,25.10
2018-05-29T13:56:17.103Z,25.00
2018-05-29T13:58:44.628Z,24.80
2018-05-29T14:01:12.095Z,24.70
2018-05-29T14:03:39.568Z,24.60
2018-05-29T14:06:07.063Z,24.70
2018-05-29T14:08:35.318Z,24.80
2018-05-29T14:11:02.782Z,24.80
2018-05-29T14:13:30.257Z,24.50
2018-05-29T14:15:58.495Z,24.10
2018-05-29T14:18:25.981Z,24.10
2018-05-29T14:20:54.242Z,23.90
2018-05-29T14:23:21.706Z,23.90
2018-05-29T14:25:49.182Z,24.00
2018-05-29T14:28:17.441Z,23.40
2018-05-29T14:30:45.052Z,23.40
2018-05-29T14:33:12.539Z,23.50
2018-05-29T14:35:40.006Z,23.50
2018-05-29T14:38:07.488Z,23.40
2018-05-29T14:40:35.755Z,23.20
2018-05-29T14:43:03.214Z,23.30
2018-05-29T14:45:30.686Z,23.20
2018-05-29T14:47:58.923Z,23.10
2018-05-29T14:50:26.381Z,23.10
2018-05-29T14:52:53.863Z,23.00
2018-05-29T14:55:22.138Z,22.80
2018-05-29T14:57:49.606Z,22.80
2018-05-29T15:00:17.842Z,22.90
2018-05-29T15:02:45.328Z,22.80
2018-05-29T15:05:12.800Z,22.80
2018-05-29T15:07:41.058Z,22.80
2018-05-29T15:10:08.535Z,22.80
2018-05-29T15:12:36.798Z,22.70
2018-05-29T15:15:04.285Z,22.70
2018-05-29T15:17:31.765Z,22.50
2018-05-29T15:19:59.238Z,22.50
2018-05-29T15:22:26.725Z,22.60
2018-05-29T15:24:55.011Z,22.80
2018-05-29T15:27:22.564Z,22.80
2018-05-29T15:29:50.070Z,23.00
2018-05-29T15:32:17.544Z,23.20
2018-05-29T15:34:45.777Z,23.30
2018-05-29T15:37:13.257Z,23.20
2018-05-29T15:39:40.768Z,23.30
2018-05-29T15:42:09.017Z,23.50
2018-05-29T15:44:36.542Z,23.50
2018-05-29T15:47:04.073Z,23.70
2018-05-29T15:49:32.324Z,23.60
2018-05-29T15:51:59.805Z,23.60
2018-05-29T15:54:28.074Z,23.90
2018-05-29T15:56:55.596Z,23.80
2018-05-29T15:59:23.068Z,23.80
2018-05-29T16:01:50.531Z,23.40
2018-05-29T16:04:18.020Z,23.10
2018-05-29T16:06:46.287Z,22.90
2018-05-29T16:09:14.534Z,23.30
2018-05-29T16:11:42.011Z,23.20
2018-05-29T16:14:09.590Z,23.40
2018-05-29T16:16:37.063Z,23.60
2018-05-29T16:19:04.534Z,23.70
2018-05-29T16:21:32.006Z,23.60
2018-05-29T16:23:59.518Z,23.70
2018-05-29T16:26:27.771Z,24.10
2018-05-29T16:28:55.270Z,24.10
2018-05-29T16:31:22.811Z,24.00
2018-05-29T16:33:51.057Z,24.30
2018-05-29T16:36:18.522Z,24.20
2018-05-29T16:38:46.012Z,24.30
2018-05-29T16:41:14.267Z,23.80
2018-05-29T16:43:42.514Z,23.70
2018-05-29T16:46:09.978Z,23.70
2018-05-29T16:48:37.461Z,23.70
2018-05-29T16:51:04.979Z,23.80
2018-05-29T16:53:32.462Z,23.90
2018-05-29T16:55:59.939Z,23.80
2018-05-29T16:58:28.193Z,23.90
2018-05-29T17:00:55.669Z,23.90
2018-05-29T17:03:23.920Z,23.80
2018-05-29T17:05:51.391Z,23.80
2018-05-29T17:08:18.937Z,23.80
2018-05-29T17:10:46.450Z,23.80
2018-05-29T17:13:14.030Z,23.60
2018-05-29T17:15:41.491Z,23.30
2018-05-29T17:18:08.976Z,23.10
2018-05-29T17:20:36.450Z,23.30
2018-05-29T17:23:04.717Z,23.40
2018-05-29T17:25:32.196Z,23.40
2018-05-29T17:28:00.422Z,23.20
2018-05-29T17:30:27.885Z,23.20
2018-05-29T17:32:55.349Z,23.30
2018-05-29T17:35:22.831Z,23.10
2018-05-29T17:37:51.774Z,22.80
2018-05-29T17:40:19.275Z,22.80
2018-05-29T17:42:46.754Z,22.90
2018-05-29T17:45:15.005Z,22.70
2018-05-29T17:47:42.623Z,22.70
2018-05-29T17:50:10.323Z,22.80
2018-05-29T17:52:38.586Z,22.80
2018-05-29T17:55:06.278Z,22.70
2018-05-29T17:57:33.781Z,22.70
2018-05-29T18:00:01.257Z,22.70
2018-05-29T18:02:28.725Z,22.70
2018-05-29T18:04:56.380Z,22.60
2018-05-29T18:07:24.045Z,22.60
2018-05-29T18:09:51.774Z,22.40
2018-05-29T18:12:19.290Z,22.40
2018-05-29T18:14:50.631Z,22.30
2018-05-29T18:17:18.093Z,22.20
2018-05-29T18:19:45.569Z,22.20
2018-05-29T18:22:13.843Z,22.10
2018-05-29T18:24:41.463Z,22.10
2018-05-29T18:27:08.953Z,22.30
2018-05-29T18:29:36.536Z,22.30
2018-05-29T18:32:04.016Z,22.10
2018-05-29T18:34:31.490Z,22.10
2018-05-29T18:36:58.967Z,22.10
2018-05-29T18:39:26.439Z,22.20
2018-05-29T18:41:53.907Z,22.00
2018-05-29T18:44:22.153Z,21.90
2018-05-29T18:46:49.635Z,21.90
2018-05-29T18:49:17.892Z,21.70
2018-05-29T18:51:45.374Z,21.70
2018-05-29T18:54:13.626Z,21.60
2018-05-29T18:56:41.105Z,21.60
2018-05-29T18:59:09.353Z,21.70
2018-05-29T19:01:36.834Z,21.70
2018-05-29T19:04:05.121Z,21.60
2018-05-29T19:06:32.629Z,21.60
2018-05-29T19:09:00.114Z,21.60
2018-05-29T19:11:27.588Z,21.40
2018-05-29T19:13:55.854Z,21.40
2018-05-29T19:16:23.370Z,21.40
2018-05-29T19:18:50.836Z,21.30
2018-05-29T19:21:18.304Z,21.30
2018-05-29T19:23:45.773Z,21.40
2018-05-29T19:26:13.270Z,21.50
2018-05-29T19:28:40.743Z,21.40
2018-05-29T19:31:08.249Z,21.40
2018-05-29T19:33:35.720Z,21.40
2018-05-29T19:36:04.014Z,21.40
2018-05-29T19:38:32.241Z,21.40
2018-05-29T19:40:59.788Z,21.40
2018-05-29T19:43:27.278Z,21.20
2018-05-29T19:45:54.803Z,21.00
2018-05-29T19:48:22.282Z,20.80
2018-05-29T19:50:49.771Z,20.70
2018-05-29T19:53:18.011Z,20.70
2018-05-29T19:55:45.570Z,20.70
2018-05-29T19:58:13.059Z,20.70
2018-05-29T20:00:41.303Z,20.60
2018-05-29T20:03:08.773Z,20.60
2018-05-29T20:05:36.247Z,20.70
2018-05-29T20:08:04.510Z,20.70
2018-05-29T20:10:32.044Z,20.70
2018-05-29T20:12:59.491Z,20.70
2018-05-29T20:15:26.976Z,20.70
2018-05-29T20:17:54.448Z,20.60
2018-05-29T20:20:22.700Z,20.70
2018-05-29T20:22:50.182Z,20.60
2018-05-29T20:25:17.658Z,20.50
2018-05-29T20:27:45.171Z,20.40
2018-05-29T20:30:12.662Z,20.30
2018-05-29T20:32:40.136Z,20.20
2018-05-29T20:35:07.659Z,20.30
2018-05-29T20:37:35.128Z,20.30
2018-05-29T20:40:02.616Z,20.40
2018-05-29T20:42:30.110Z,20.30
2018-05-29T20:44:57.566Z,20.10
2018-05-29T20:47:25.033Z,20.20
2018-05-29T20:49:52.519Z,20.30
2018-05-29T20:52:20.008Z,20.30
2018-05-29T20:54:47.490Z,20.20
2018-05-29T20:57:15.581Z,20.10
2018-05-29T20:59:43.085Z,20.20
2018-05-29T21:02:11.335Z,20.20
2018-05-29T21:04:38.827Z,20.20
2018-05-29T21:07:07.071Z,19.90
2018-05-29T21:09:34.581Z,19.90
2018-05-29T21:12:02.044Z,19.90
2018-05-29T21:14:29.562Z,19.90
2018-05-29T21:16:57.799Z,19.90
2018-05-29T21:19:25.264Z,19.90
2018-05-29T21:21:52.742Z,19.70
2018-05-29T21:24:20.211Z,19.70
2018-05-29T21:26:48.470Z,19.60
2018-05-29T21:29:16.712Z,19.70
2018-05-29T21:31:44.187Z,19.60
2018-05-29T21:34:11.684Z,19.70
2018-05-29T21:36:39.942Z,19.70
2018-05-29T21:39:08.183Z,19.70
2018-05-29T21:41:35.670Z,19.60
2018-05-29T21:44:03.915Z,19.50
2018-05-29T21:46:31.541Z,19.50
2018-05-29T21:48:58.952Z,19.50
2018-05-29T21:51:26.423Z,19.50
2018-05-29T21:53:54.663Z,19.50
2018-05-29T21:56:22.181Z,19.50
2018-05-29T21:58:50.406Z,19.40
2018-05-29T22:01:17.890Z,19.40
2018-05-29T22:03:45.345Z,19.50
2018-05-29T22:06:12.815Z,19.40
2018-05-29T22:08:41.200Z,19.40
2018-05-29T22:11:08.677Z,19.30
2018-05-29T22:13:36.158Z,19.40
2018-05-29T22:16:03.645Z,19.30
2018-05-29T22:18:31.117Z,19.20
2018-05-29T22:20:59.410Z,19.10
2018-05-29T22:23:26.843Z,19.20
2018-05-29T22:25:54.311Z,19.00
2018-05-29T22:28:22.580Z,18.80
2018-05-29T22:30:50.081Z,18.70
2018-05-29T22:33:17.548Z,18.50
2018-05-29T22:35:45.052Z,18.30
2018-05-29T22:38:12.585Z,18.30
2018-05-29T22:40:40.087Z,18.20
2018-05-29T22:43:08.322Z,18.30
2018-05-29T22:45:35.811Z,18.30
2018-05-29T22:48:04.069Z,17.90
2018-05-29T22:50:31.608Z,17.90
2018-05-29T22:52:59.092Z,17.70
2018-05-29T22:55:26.563Z,17.60
2018-05-29T22:57:54.797Z,17.60
2018-05-29T23:00:22.287Z,17.60
2018-05-29T23:02:49.758Z,17.80
2018-05-29T23:05:18.647Z,17.90
2018-05-29T23:07:46.922Z,18.00
2018-05-29T23:10:15.185Z,18.00
2018-05-29T23:12:42.655Z,18.10
2018-05-29T23:15:11.705Z,18.00
2018-05-29T23:17:39.277Z,18.10
2018-05-29T23:20:06.753Z,18.00
2018-05-29T23:22:34.228Z,18.10
2018-05-29T23:25:02.473Z,17.90
2018-05-29T23:27:29.944Z,17.90
2018-05-29T23:29:57.408Z,17.90
2018-05-29T23:32:25.720Z,18.00
2018-05-29T23:34:53.917Z,18.00
2018-05-29T23:37:21.413Z,18.00
2018-05-29T23:39:48.914Z,18.00
2018-05-29T23:42:18.834Z,17.80
2018-05-29T23:44:46.313Z,17.70
2018-05-29T23:47:13.812Z,17.70
2018-05-29T23:49:42.061Z,17.60
2018-05-29T23:52:09.529Z,17.60
2018-05-29T23:54:37.018Z,17.70
2018-05-29T23:57:04.497Z,17.70
2018-05-29T23:59:40.065Z,17.80
